sensor_id;sensor_type;location;lat;lon;timestamp;temperature;humidity
975;DHT22;6115;49.296;10.602;2023-05-10T00:03:28;14.30;89.40
975;DHT22;6115;49.296;10.602;2023-05-10T00:08:29;14.40;89.80
975;DHT22;6115;49.296;10.602;2023-05-10T00:13:29;14.30;89.70
975;DHT22;6115;49.296;10.602;2023-05-10T00:18:30;14.30;89.70
975;DHT22;6115;49.296;10.602;2023-05-10T00:23:30;14.30;89.90
975;DHT22;6115;49.296;10.602;2023-05-10T00:28:31;14.20;89.70
975;DHT22;6115;49.296;10.602;2023-05-10T00:33:31;14.10;90.00
975;DHT22;6115;49.296;10.602;2023-05-10T00:38:32;14.10;90.20
975;DHT22;6115;49.296;10.602;2023-05-10T00:43:32;14.10;90.20
975;DHT22;6115;49.296;10.602;2023-05-10T00:48:33;14.10;90.40
975;DHT22;6115;49.296;10.602;2023-05-10T00:53:34;13.90;90.50
975;DHT22;6115;49.296;10.602;2023-05-10T00:58:35;13.90;90.90
975;DHT22;6115;49.296;10.602;2023-05-10T01:03:36;13.90;90.90
975;DHT22;6115;49.296;10.602;2023-05-10T01:08:37;13.90;90.90
975;DHT22;6115;49.296;10.602;2023-05-10T01:13:39;13.90;90.90
975;DHT22;6115;49.296;10.602;2023-05-10T01:18:41;14.00;90.90
975;DHT22;6115;49.296;10.602;2023-05-10T01:24:09;14.00;90.90
975;DHT22;6115;49.296;10.602;2023-05-10T01:29:22;13.90;90.60
975;DHT22;6115;49.296;10.602;2023-05-10T01:34:37;13.90;90.70
975;DHT22;6115;49.296;10.602;2023-05-10T01:39:52;14.00;90.80
975;DHT22;6115;49.296;10.602;2023-05-10T01:45:05;14.00;90.60
975;DHT22;6115;49.296;10.602;2023-05-10T01:50:15;14.00;90.90
975;DHT22;6115;49.296;10.602;2023-05-10T01:55:19;13.90;90.40
975;DHT22;6115;49.296;10.602;2023-05-10T02:00:20;13.90;90.40
975;DHT22;6115;49.296;10.602;2023-05-10T02:05:22;13.70;90.00
975;DHT22;6115;49.296;10.602;2023-05-10T02:10:23;13.50;90.10
975;DHT22;6115;49.296;10.602;2023-05-10T02:15:24;13.50;90.40
975;DHT22;6115;49.296;10.602;2023-05-10T02:20:27;13.50;90.50
975;DHT22;6115;49.296;10.602;2023-05-10T02:25:28;13.40;90.60
975;DHT22;6115;49.296;10.602;2023-05-10T02:30:31;13.30;90.60
975;DHT22;6115;49.296;10.602;2023-05-10T02:35:33;13.30;90.60
975;DHT22;6115;49.296;10.602;2023-05-10T02:40:35;13.30;90.60
975;DHT22;6115;49.296;10.602;2023-05-10T02:45:37;13.20;90.60
975;DHT22;6115;49.296;10.602;2023-05-10T02:50:43;13.10;90.50
975;DHT22;6115;49.296;10.602;2023-05-10T02:55:45;13.10;90.50
975;DHT22;6115;49.296;10.602;2023-05-10T03:00:48;13.00;90.50
975;DHT22;6115;49.296;10.602;2023-05-10T03:05:49;12.90;90.40
975;DHT22;6115;49.296;10.602;2023-05-10T03:16:12;12.60;90.30
975;DHT22;6115;49.296;10.602;2023-05-10T03:21:17;12.60;90.60
975;DHT22;6115;49.296;10.602;2023-05-10T03:26:24;12.70;90.80
975;DHT22;6115;49.296;10.602;2023-05-10T03:31:26;12.80;91.20
975;DHT22;6115;49.296;10.602;2023-05-10T03:36:27;12.80;91.10
975;DHT22;6115;49.296;10.602;2023-05-10T03:41:27;12.80;90.40
975;DHT22;6115;49.296;10.602;2023-05-10T03:46:28;12.70;90.30
975;DHT22;6115;49.296;10.602;2023-05-10T03:51:29;12.60;90.30
975;DHT22;6115;49.296;10.602;2023-05-10T03:56:31;12.60;90.30
975;DHT22;6115;49.296;10.602;2023-05-10T04:01:31;12.50;90.30
975;DHT22;6115;49.296;10.602;2023-05-10T04:06:32;12.50;90.20
975;DHT22;6115;49.296;10.602;2023-05-10T04:11:33;12.40;90.20
975;DHT22;6115;49.296;10.602;2023-05-10T04:16:33;12.50;90.30
975;DHT22;6115;49.296;10.602;2023-05-10T04:21:34;12.40;90.20
975;DHT22;6115;49.296;10.602;2023-05-10T04:26:34;12.40;89.90
975;DHT22;6115;49.296;10.602;2023-05-10T04:31:35;12.40;89.80
975;DHT22;6115;49.296;10.602;2023-05-10T04:36:36;12.30;89.20
975;DHT22;6115;49.296;10.602;2023-05-10T04:41:37;12.30;89.20
975;DHT22;6115;49.296;10.602;2023-05-10T04:46:38;12.30;88.80
975;DHT22;6115;49.296;10.602;2023-05-10T04:51:39;12.30;88.30
975;DHT22;6115;49.296;10.602;2023-05-10T04:56:39;12.20;88.70
975;DHT22;6115;49.296;10.602;2023-05-10T05:01:41;12.20;88.90
975;DHT22;6115;49.296;10.602;2023-05-10T05:06:41;12.20;88.60
975;DHT22;6115;49.296;10.602;2023-05-10T05:11:42;12.30;88.70
975;DHT22;6115;49.296;10.602;2023-05-10T05:16:42;12.30;88.60
975;DHT22;6115;49.296;10.602;2023-05-10T05:21:43;12.40;88.80
975;DHT22;6115;49.296;10.602;2023-05-10T05:26:43;12.60;88.80
975;DHT22;6115;49.296;10.602;2023-05-10T05:31:44;12.60;88.20
975;DHT22;6115;49.296;10.602;2023-05-10T05:36:44;12.70;87.70
975;DHT22;6115;49.296;10.602;2023-05-10T05:41:45;12.80;88.00
975;DHT22;6115;49.296;10.602;2023-05-10T05:46:46;12.90;86.40
975;DHT22;6115;49.296;10.602;2023-05-10T05:51:47;12.90;86.40
975;DHT22;6115;49.296;10.602;2023-05-10T05:56:49;12.90;85.50
975;DHT22;6115;49.296;10.602;2023-05-10T06:01:53;13.00;85.10
975;DHT22;6115;49.296;10.602;2023-05-10T06:06:56;13.00;84.00
975;DHT22;6115;49.296;10.602;2023-05-10T06:11:57;13.00;84.50
975;DHT22;6115;49.296;10.602;2023-05-10T06:16:57;13.00;83.40
975;DHT22;6115;49.296;10.602;2023-05-10T06:21:59;12.90;82.80
975;DHT22;6115;49.296;10.602;2023-05-10T06:27:00;13.10;83.00
975;DHT22;6115;49.296;10.602;2023-05-10T06:32:01;13.00;82.10
975;DHT22;6115;49.296;10.602;2023-05-10T06:37:01;12.80;82.60
975;DHT22;6115;49.296;10.602;2023-05-10T06:42:03;12.90;83.00
975;DHT22;6115;49.296;10.602;2023-05-10T06:47:04;13.10;83.10
975;DHT22;6115;49.296;10.602;2023-05-10T06:52:05;13.30;82.00
975;DHT22;6115;49.296;10.602;2023-05-10T06:57:05;13.40;81.50
975;DHT22;6115;49.296;10.602;2023-05-10T07:02:06;13.30;81.00
975;DHT22;6115;49.296;10.602;2023-05-10T07:07:07;13.50;81.50
975;DHT22;6115;49.296;10.602;2023-05-10T07:12:08;13.70;80.40
975;DHT22;6115;49.296;10.602;2023-05-10T07:17:09;13.70;80.00
975;DHT22;6115;49.296;10.602;2023-05-10T07:22:10;13.60;79.40
975;DHT22;6115;49.296;10.602;2023-05-10T07:27:10;13.50;79.50
975;DHT22;6115;49.296;10.602;2023-05-10T07:32:11;13.40;80.00
975;DHT22;6115;49.296;10.602;2023-05-10T07:37:11;13.30;81.00
975;DHT22;6115;49.296;10.602;2023-05-10T07:42:12;13.40;81.20
975;DHT22;6115;49.296;10.602;2023-05-10T07:47:12;13.60;80.90
975;DHT22;6115;49.296;10.602;2023-05-10T07:52:13;13.90;79.50
975;DHT22;6115;49.296;10.602;2023-05-10T07:57:13;14.10;77.50
975;DHT22;6115;49.296;10.602;2023-05-10T08:02:15;14.30;75.00
975;DHT22;6115;49.296;10.602;2023-05-10T08:07:16;14.40;73.50
975;DHT22;6115;49.296;10.602;2023-05-10T08:12:16;14.40;72.60
975;DHT22;6115;49.296;10.602;2023-05-10T08:17:17;14.50;72.30
975;DHT22;6115;49.296;10.602;2023-05-10T08:22:17;14.70;71.60
975;DHT22;6115;49.296;10.602;2023-05-10T08:27:18;14.70;68.30
975;DHT22;6115;49.296;10.602;2023-05-10T08:32:18;14.80;69.40
975;DHT22;6115;49.296;10.602;2023-05-10T08:37:19;14.90;68.00
975;DHT22;6115;49.296;10.602;2023-05-10T08:42:23;15.10;66.90
975;DHT22;6115;49.296;10.602;2023-05-10T08:47:27;14.80;67.90
975;DHT22;6115;49.296;10.602;2023-05-10T08:52:28;15.40;67.20
975;DHT22;6115;49.296;10.602;2023-05-10T08:57:30;15.60;64.70
975;DHT22;6115;49.296;10.602;2023-05-10T09:02:31;15.40;62.60
975;DHT22;6115;49.296;10.602;2023-05-10T09:07:31;15.10;64.20
975;DHT22;6115;49.296;10.602;2023-05-10T09:12:32;15.00;64.20
975;DHT22;6115;49.296;10.602;2023-05-10T09:17:33;15.10;65.70
975;DHT22;6115;49.296;10.602;2023-05-10T09:22:34;15.10;64.20
975;DHT22;6115;49.296;10.602;2023-05-10T09:27:36;15.10;64.30
975;DHT22;6115;49.296;10.602;2023-05-10T09:32:44;15.20;65.60
975;DHT22;6115;49.296;10.602;2023-05-10T09:37:47;15.00;64.50
975;DHT22;6115;49.296;10.602;2023-05-10T09:48:02;14.80;66.40
975;DHT22;6115;49.296;10.602;2023-05-10T09:53:03;14.80;67.40
975;DHT22;6115;49.296;10.602;2023-05-10T09:58:09;14.80;67.30
975;DHT22;6115;49.296;10.602;2023-05-10T10:03:15;14.80;65.20
975;DHT22;6115;49.296;10.602;2023-05-10T10:08:16;14.80;66.20
975;DHT22;6115;49.296;10.602;2023-05-10T10:13:20;15.10;65.70
975;DHT22;6115;49.296;10.602;2023-05-10T10:18:21;15.40;64.50
975;DHT22;6115;49.296;10.602;2023-05-10T10:23:27;15.50;65.90
975;DHT22;6115;49.296;10.602;2023-05-10T10:28:57;15.90;65.00
975;DHT22;6115;49.296;10.602;2023-05-10T10:34:10;16.30;61.50
975;DHT22;6115;49.296;10.602;2023-05-10T10:39:14;16.20;61.30
975;DHT22;6115;49.296;10.602;2023-05-10T10:44:34;15.50;64.30
975;DHT22;6115;49.296;10.602;2023-05-10T10:49:42;14.80;67.70
975;DHT22;6115;49.296;10.602;2023-05-10T11:05:35;15.60;67.00
975;DHT22;6115;49.296;10.602;2023-05-10T11:10:36;15.70;66.60
975;DHT22;6115;49.296;10.602;2023-05-10T11:15:38;15.50;67.60
975;DHT22;6115;49.296;10.602;2023-05-10T11:20:39;14.90;71.80
975;DHT22;6115;49.296;10.602;2023-05-10T11:25:43;14.40;73.50
975;DHT22;6115;49.296;10.602;2023-05-10T11:30:44;14.30;75.40
975;DHT22;6115;49.296;10.602;2023-05-10T11:35:46;14.30;74.70
975;DHT22;6115;49.296;10.602;2023-05-10T11:40:47;14.50;75.50
975;DHT22;6115;49.296;10.602;2023-05-10T11:45:51;15.00;76.00
975;DHT22;6115;49.296;10.602;2023-05-10T11:50:52;15.50;76.40
975;DHT22;6115;49.296;10.602;2023-05-10T11:55:55;15.70;69.90
975;DHT22;6115;49.296;10.602;2023-05-10T12:01:03;15.90;67.70
975;DHT22;6115;49.296;10.602;2023-05-10T12:06:04;15.80;65.80
975;DHT22;6115;49.296;10.602;2023-05-10T12:11:07;16.10;65.20
975;DHT22;6115;49.296;10.602;2023-05-10T12:16:24;16.40;63.60
975;DHT22;6115;49.296;10.602;2023-05-10T12:21:26;16.60;59.90
975;DHT22;6115;49.296;10.602;2023-05-10T12:26:28;16.60;60.70
975;DHT22;6115;49.296;10.602;2023-05-10T12:31:29;16.50;59.80
975;DHT22;6115;49.296;10.602;2023-05-10T12:36:29;16.20;60.30
975;DHT22;6115;49.296;10.602;2023-05-10T12:41:31;16.00;61.20
975;DHT22;6115;49.296;10.602;2023-05-10T12:46:32;15.80;63.90
975;DHT22;6115;49.296;10.602;2023-05-10T12:51:32;15.50;67.20
975;DHT22;6115;49.296;10.602;2023-05-10T12:56:33;15.10;69.30
975;DHT22;6115;49.296;10.602;2023-05-10T13:01:34;15.10;69.30
975;DHT22;6115;49.296;10.602;2023-05-10T13:06:35;15.10;70.60
975;DHT22;6115;49.296;10.602;2023-05-10T13:11:36;15.40;71.20
975;DHT22;6115;49.296;10.602;2023-05-10T13:16:36;15.90;69.50
975;DHT22;6115;49.296;10.602;2023-05-10T13:21:37;16.20;66.50
975;DHT22;6115;49.296;10.602;2023-05-10T13:26:37;16.10;60.20
975;DHT22;6115;49.296;10.602;2023-05-10T13:31:38;16.20;59.00
975;DHT22;6115;49.296;10.602;2023-05-10T13:36:38;16.30;57.80
975;DHT22;6115;49.296;10.602;2023-05-10T13:41:39;16.30;58.50
975;DHT22;6115;49.296;10.602;2023-05-10T13:46:43;16.20;56.60
975;DHT22;6115;49.296;10.602;2023-05-10T13:51:43;16.20;57.30
975;DHT22;6115;49.296;10.602;2023-05-10T13:56:44;16.30;57.80
975;DHT22;6115;49.296;10.602;2023-05-10T14:01:45;16.60;58.00
975;DHT22;6115;49.296;10.602;2023-05-10T14:06:46;16.60;58.70
975;DHT22;6115;49.296;10.602;2023-05-10T14:11:46;16.60;57.80
975;DHT22;6115;49.296;10.602;2023-05-10T14:16:47;16.50;58.30
975;DHT22;6115;49.296;10.602;2023-05-10T14:21:47;15.90;59.70
975;DHT22;6115;49.296;10.602;2023-05-10T14:26:48;15.50;59.70
975;DHT22;6115;49.296;10.602;2023-05-10T14:31:49;15.40;60.80
975;DHT22;6115;49.296;10.602;2023-05-10T14:36:49;15.10;62.30
975;DHT22;6115;49.296;10.602;2023-05-10T14:41:50;15.30;64.50
975;DHT22;6115;49.296;10.602;2023-05-10T14:46:52;14.50;65.60
975;DHT22;6115;49.296;10.602;2023-05-10T14:51:52;14.50;67.50
975;DHT22;6115;49.296;10.602;2023-05-10T14:56:53;14.60;66.40
975;DHT22;6115;49.296;10.602;2023-05-10T15:01:54;14.40;67.90
975;DHT22;6115;49.296;10.602;2023-05-10T15:06:54;14.40;68.50
975;DHT22;6115;49.296;10.602;2023-05-10T15:11:59;14.20;68.40
975;DHT22;6115;49.296;10.602;2023-05-10T15:16:59;14.30;69.40
975;DHT22;6115;49.296;10.602;2023-05-10T15:22:00;14.30;68.60
975;DHT22;6115;49.296;10.602;2023-05-10T15:27:00;14.50;68.10
975;DHT22;6115;49.296;10.602;2023-05-10T15:32:01;14.60;66.50
975;DHT22;6115;49.296;10.602;2023-05-10T15:37:03;14.40;65.30
975;DHT22;6115;49.296;10.602;2023-05-10T15:42:03;14.50;65.60
975;DHT22;6115;49.296;10.602;2023-05-10T15:47:04;14.70;65.50
975;DHT22;6115;49.296;10.602;2023-05-10T15:52:05;14.60;66.40
975;DHT22;6115;49.296;10.602;2023-05-10T15:57:06;14.60;67.40
975;DHT22;6115;49.296;10.602;2023-05-10T16:02:08;14.60;65.80
975;DHT22;6115;49.296;10.602;2023-05-10T16:07:10;14.50;67.00
975;DHT22;6115;49.296;10.602;2023-05-10T16:12:11;14.50;67.30
975;DHT22;6115;49.296;10.602;2023-05-10T16:17:12;14.50;67.50
975;DHT22;6115;49.296;10.602;2023-05-10T16:22:14;14.50;68.00
975;DHT22;6115;49.296;10.602;2023-05-10T16:27:14;14.50;68.70
975;DHT22;6115;49.296;10.602;2023-05-10T16:32:15;14.40;67.80
975;DHT22;6115;49.296;10.602;2023-05-10T16:37:16;14.40;68.50
975;DHT22;6115;49.296;10.602;2023-05-10T16:42:16;14.50;69.10
975;DHT22;6115;49.296;10.602;2023-05-10T16:47:17;14.60;68.80
975;DHT22;6115;49.296;10.602;2023-05-10T16:52:17;14.40;67.30
975;DHT22;6115;49.296;10.602;2023-05-10T16:57:18;14.50;67.80
975;DHT22;6115;49.296;10.602;2023-05-10T17:02:22;14.20;68.40
975;DHT22;6115;49.296;10.602;2023-05-10T17:07:23;14.10;68.30
975;DHT22;6115;49.296;10.602;2023-05-10T17:12:24;14.30;68.50
975;DHT22;6115;49.296;10.602;2023-05-10T17:17:24;14.30;67.90
975;DHT22;6115;49.296;10.602;2023-05-10T17:22:25;14.40;68.00
975;DHT22;6115;49.296;10.602;2023-05-10T17:27:26;14.40;67.90
975;DHT22;6115;49.296;10.602;2023-05-10T17:32:28;14.50;66.30
975;DHT22;6115;49.296;10.602;2023-05-10T17:37:28;14.50;65.60
975;DHT22;6115;49.296;10.602;2023-05-10T17:42:29;14.40;63.80
975;DHT22;6115;49.296;10.602;2023-05-10T17:47:30;14.40;63.60
975;DHT22;6115;49.296;10.602;2023-05-10T17:52:30;14.30;63.70
975;DHT22;6115;49.296;10.602;2023-05-10T17:57:31;14.40;63.50
975;DHT22;6115;49.296;10.602;2023-05-10T18:02:34;14.30;63.50
975;DHT22;6115;49.296;10.602;2023-05-10T18:07:35;14.10;63.20
975;DHT22;6115;49.296;10.602;2023-05-10T18:12:35;14.10;63.20
975;DHT22;6115;49.296;10.602;2023-05-10T18:17:36;14.20;63.30
975;DHT22;6115;49.296;10.602;2023-05-10T18:22:37;14.10;63.90
975;DHT22;6115;49.296;10.602;2023-05-10T18:27:37;14.00;64.40
975;DHT22;6115;49.296;10.602;2023-05-10T18:32:38;13.80;65.80
975;DHT22;6115;49.296;10.602;2023-05-10T18:37:38;13.80;67.00
975;DHT22;6115;49.296;10.602;2023-05-10T18:42:39;13.80;67.20
975;DHT22;6115;49.296;10.602;2023-05-10T18:47:41;13.80;67.10
975;DHT22;6115;49.296;10.602;2023-05-10T18:52:42;13.90;67.80
975;DHT22;6115;49.296;10.602;2023-05-10T18:57:43;13.70;66.50
975;DHT22;6115;49.296;10.602;2023-05-10T19:02:44;13.70;66.30
975;DHT22;6115;49.296;10.602;2023-05-10T19:07:44;13.80;66.20
975;DHT22;6115;49.296;10.602;2023-05-10T19:12:45;13.70;65.10
975;DHT22;6115;49.296;10.602;2023-05-10T19:17:46;13.70;64.50
975;DHT22;6115;49.296;10.602;2023-05-10T19:22:46;13.60;63.50
975;DHT22;6115;49.296;10.602;2023-05-10T19:27:47;13.60;64.50
975;DHT22;6115;49.296;10.602;2023-05-10T19:32:47;13.60;64.10
975;DHT22;6115;49.296;10.602;2023-05-10T19:37:48;13.60;63.50
975;DHT22;6115;49.296;10.602;2023-05-10T19:42:49;13.80;62.90
975;DHT22;6115;49.296;10.602;2023-05-10T19:47:49;13.80;63.00
975;DHT22;6115;49.296;10.602;2023-05-10T19:52:50;14.00;63.20
975;DHT22;6115;49.296;10.602;2023-05-10T19:57:51;14.00;63.90
975;DHT22;6115;49.296;10.602;2023-05-10T20:02:52;14.10;63.80
975;DHT22;6115;49.296;10.602;2023-05-10T20:07:53;14.00;64.00
975;DHT22;6115;49.296;10.602;2023-05-10T20:12:53;14.00;65.10
975;DHT22;6115;49.296;10.602;2023-05-10T20:17:54;13.90;67.10
975;DHT22;6115;49.296;10.602;2023-05-10T20:22:55;13.80;68.00
975;DHT22;6115;49.296;10.602;2023-05-10T20:27:55;13.80;68.50
975;DHT22;6115;49.296;10.602;2023-05-10T20:32:56;13.80;69.00
975;DHT22;6115;49.296;10.602;2023-05-10T20:37:56;13.70;69.20
975;DHT22;6115;49.296;10.602;2023-05-10T20:42:59;13.60;69.60
975;DHT22;6115;49.296;10.602;2023-05-10T20:47:59;13.60;69.70
975;DHT22;6115;49.296;10.602;2023-05-10T20:53:00;13.60;69.90
975;DHT22;6115;49.296;10.602;2023-05-10T20:58:00;13.60;69.80
975;DHT22;6115;49.296;10.602;2023-05-10T21:03:01;13.60;69.90
975;DHT22;6115;49.296;10.602;2023-05-10T21:08:02;13.60;70.10
975;DHT22;6115;49.296;10.602;2023-05-10T21:13:02;13.60;70.20
975;DHT22;6115;49.296;10.602;2023-05-10T21:18:03;13.60;70.00
975;DHT22;6115;49.296;10.602;2023-05-10T21:23:04;13.70;70.20
975;DHT22;6115;49.296;10.602;2023-05-10T21:28:04;13.60;70.30
975;DHT22;6115;49.296;10.602;2023-05-10T21:33:05;13.70;70.30
975;DHT22;6115;49.296;10.602;2023-05-10T21:38:05;13.60;70.20
975;DHT22;6115;49.296;10.602;2023-05-10T21:43:06;13.60;70.30
975;DHT22;6115;49.296;10.602;2023-05-10T21:48:07;13.50;70.50
975;DHT22;6115;49.296;10.602;2023-05-10T21:53:08;13.50;70.70
975;DHT22;6115;49.296;10.602;2023-05-10T21:58:08;13.30;70.90
975;DHT22;6115;49.296;10.602;2023-05-10T22:03:09;13.30;71.20
975;DHT22;6115;49.296;10.602;2023-05-10T22:08:09;13.30;71.50
975;DHT22;6115;49.296;10.602;2023-05-10T22:13:10;13.30;72.40
975;DHT22;6115;49.296;10.602;2023-05-10T22:18:10;13.30;72.40
975;DHT22;6115;49.296;10.602;2023-05-10T22:23:11;13.30;72.40
975;DHT22;6115;49.296;10.602;2023-05-10T22:28:12;13.20;72.20
975;DHT22;6115;49.296;10.602;2023-05-10T22:33:12;13.20;72.10
975;DHT22;6115;49.296;10.602;2023-05-10T22:38:13;13.30;71.60
975;DHT22;6115;49.296;10.602;2023-05-10T22:43:15;13.30;71.30
975;DHT22;6115;49.296;10.602;2023-05-10T22:48:15;13.30;71.20
975;DHT22;6115;49.296;10.602;2023-05-10T22:53:16;13.20;70.30
975;DHT22;6115;49.296;10.602;2023-05-10T22:58:17;13.10;69.70
975;DHT22;6115;49.296;10.602;2023-05-10T23:03:17;13.00;69.80
975;DHT22;6115;49.296;10.602;2023-05-10T23:08:18;13.00;69.80
975;DHT22;6115;49.296;10.602;2023-05-10T23:13:18;12.90;70.20
975;DHT22;6115;49.296;10.602;2023-05-10T23:18:21;12.90;70.40
975;DHT22;6115;49.296;10.602;2023-05-10T23:23:21;13.00;70.50
975;DHT22;6115;49.296;10.602;2023-05-10T23:28:22;13.10;70.50
975;DHT22;6115;49.296;10.602;2023-05-10T23:33:23;13.10;70.30
975;DHT22;6115;49.296;10.602;2023-05-10T23:38:23;13.00;69.30
975;DHT22;6115;49.296;10.602;2023-05-10T23:43:24;13.00;69.50
975;DHT22;6115;49.296;10.602;2023-05-10T23:48:24;12.90;68.80
975;DHT22;6115;49.296;10.602;2023-05-10T23:53:25;13.00;67.90
975;DHT22;6115;49.296;10.602;2023-05-10T23:58:26;13.00;67.40
